createdAt,value
2023-04-20T00:01:31.501Z,7.80
2023-04-20T00:03:58.562Z,7.80
2023-04-20T00:06:29.907Z,7.80
2023-04-20T00:08:56.924Z,7.80
2023-04-20T00:11:23.851Z,7.80
2023-04-20T00:13:50.739Z,7.70
2023-04-20T00:16:18.928Z,7.70
2023-04-20T00:18:49.402Z,7.70
2023-04-20T00:21:16.955Z,7.70
2023-04-20T00:23:43.845Z,7.70
2023-04-20T00:26:10.830Z,7.70
2023-04-20T00:28:37.686Z,7.70
2023-04-20T00:31:04.712Z,7.70
2023-04-20T00:33:31.599Z,7.70
2023-04-20T00:35:58.542Z,7.70
2023-04-20T00:38:25.464Z,7.70
2023-04-20T00:40:54.278Z,7.70
2023-04-20T00:43:21.648Z,7.60
2023-04-20T00:45:48.689Z,7.60
2023-04-20T00:48:15.549Z,7.60
2023-04-20T00:50:42.711Z,7.60
2023-04-20T00:53:09.912Z,7.60
2023-04-20T00:55:38.031Z,7.60
2023-04-20T00:58:05.934Z,7.70
2023-04-20T01:00:33.446Z,7.60
2023-04-20T01:03:00.453Z,7.60
2023-04-20T01:05:27.691Z,7.50
2023-04-20T01:07:54.638Z,7.60
2023-04-20T01:10:21.501Z,7.60
2023-04-20T01:12:48.434Z,7.60
2023-04-20T01:15:15.366Z,7.60
2023-04-20T01:17:43.906Z,7.60
2023-04-20T01:20:15.145Z,7.60
2023-04-20T01:22:49.765Z,7.50
2023-04-20T01:25:17.705Z,7.50
2023-04-20T01:27:44.866Z,7.50
2023-04-20T01:30:12.289Z,7.50
2023-04-20T01:32:39.470Z,7.40
2023-04-20T01:35:07.450Z,7.20
2023-04-20T01:37:34.470Z,7.10
2023-04-20T01:40:01.568Z,7.10
2023-04-20T01:42:28.592Z,7.00
2023-04-20T01:44:55.532Z,7.00
2023-04-20T01:47:22.388Z,6.90
2023-04-20T01:49:49.327Z,6.90
2023-04-20T01:52:16.222Z,6.90
2023-04-20T01:54:43.147Z,6.90
2023-04-20T01:57:10.084Z,6.80
2023-04-20T01:59:37.488Z,6.80
2023-04-20T02:02:04.464Z,7.00
2023-04-20T02:04:31.495Z,6.80
2023-04-20T02:06:58.396Z,6.80
2023-04-20T02:09:25.316Z,6.70
2023-04-20T02:11:52.292Z,6.70
2023-04-20T02:14:19.277Z,6.60
2023-04-20T02:16:46.878Z,6.60
2023-04-20T02:19:13.770Z,6.50
2023-04-20T02:21:41.209Z,6.40
2023-04-20T02:24:08.277Z,6.40
2023-04-20T02:26:35.203Z,6.30
2023-04-20T02:29:02.073Z,6.30
2023-04-20T02:31:29.041Z,6.30
2023-04-20T02:33:55.970Z,6.30
2023-04-20T02:36:22.880Z,6.20
2023-04-20T02:38:49.800Z,6.30
2023-04-20T02:41:16.669Z,6.30
2023-04-20T02:43:43.575Z,6.20
2023-04-20T02:46:11.343Z,6.20
2023-04-20T02:48:38.230Z,6.20
2023-04-20T02:51:05.120Z,6.10
2023-04-20T02:53:32.015Z,6.00
2023-04-20T02:55:58.860Z,6.00
2023-04-20T02:58:26.123Z,5.90
2023-04-20T03:00:58.693Z,6.00
2023-04-20T03:03:25.726Z,6.00
2023-04-20T03:05:52.769Z,5.90
2023-04-20T03:08:19.634Z,6.00
2023-04-20T03:10:46.608Z,5.90
2023-04-20T03:13:13.536Z,5.90
2023-04-20T03:15:40.797Z,5.90
2023-04-20T03:18:07.686Z,5.80
2023-04-20T03:20:34.584Z,5.80
2023-04-20T03:23:01.514Z,5.70
2023-04-20T03:25:29.620Z,5.70
2023-04-20T03:27:56.482Z,5.70
2023-04-20T03:30:23.408Z,5.70
2023-04-20T03:32:50.352Z,5.70
2023-04-20T03:35:17.887Z,5.60
2023-04-20T03:37:44.932Z,5.60
2023-04-20T03:40:12.339Z,5.60
2023-04-20T03:42:39.239Z,5.60
2023-04-20T03:45:07.180Z,5.70
2023-04-20T03:47:34.255Z,5.70
2023-04-20T03:50:01.388Z,5.60
2023-04-20T03:52:28.590Z,5.80
2023-04-20T03:54:55.752Z,5.80
2023-04-20T03:57:22.704Z,5.90
2023-04-20T03:59:49.548Z,6.00
2023-04-20T04:02:16.984Z,6.00
2023-04-20T04:04:45.397Z,5.90
2023-04-20T04:07:12.618Z,5.90
2023-04-20T04:09:39.483Z,6.10
2023-04-20T04:12:07.241Z,6.20
2023-04-20T04:14:35.013Z,6.20
2023-04-20T04:17:02.043Z,6.30
2023-04-20T04:19:28.953Z,6.30
2023-04-20T04:21:55.920Z,6.40
2023-04-20T04:24:23.136Z,6.50
2023-04-20T04:26:50.033Z,6.50
2023-04-20T04:29:17.261Z,6.50
2023-04-20T04:31:44.338Z,6.60
2023-04-20T04:34:11.286Z,6.60
2023-04-20T04:36:38.198Z,6.70
2023-04-20T04:39:05.050Z,6.80
2023-04-20T04:41:32.040Z,7.00
2023-04-20T04:43:59.646Z,7.20
2023-04-20T04:46:27.779Z,7.70
2023-04-20T04:48:56.613Z,8.10
2023-04-20T04:51:23.572Z,8.40
2023-04-20T04:53:50.512Z,8.50
2023-04-20T04:56:18.631Z,8.40
2023-04-20T04:58:45.821Z,8.30
2023-04-20T05:01:13.592Z,8.30
2023-04-20T05:03:40.672Z,8.30
2023-04-20T05:06:08.020Z,8.20
2023-04-20T05:08:35.159Z,8.20
2023-04-20T05:11:02.130Z,8.30
2023-04-20T05:13:29.040Z,8.30
2023-04-20T05:15:56.022Z,8.40
2023-04-20T05:18:22.986Z,8.40
2023-04-20T05:20:49.933Z,8.50
2023-04-20T05:23:16.934Z,8.60
2023-04-20T05:25:44.221Z,8.70
2023-04-20T05:28:11.339Z,8.80
2023-04-20T05:30:38.267Z,8.90
2023-04-20T05:33:05.568Z,8.90
2023-04-20T05:35:32.630Z,9.00
2023-04-20T05:38:06.237Z,9.10
2023-04-20T05:40:36.753Z,9.20
2023-04-20T05:43:03.729Z,9.30
2023-04-20T05:45:30.654Z,9.40
2023-04-20T05:47:58.146Z,9.40
2023-04-20T05:50:25.600Z,9.40
2023-04-20T05:52:52.987Z,9.50
2023-04-20T05:55:22.597Z,9.50
2023-04-20T05:57:52.048Z,9.60
2023-04-20T06:00:19.693Z,9.60
2023-04-20T06:02:46.789Z,9.70
2023-04-20T06:05:14.000Z,9.70
2023-04-20T06:07:41.029Z,9.60
2023-04-20T06:10:08.672Z,9.70
2023-04-20T06:12:36.020Z,9.70
2023-04-20T06:15:04.012Z,9.80
2023-04-20T06:17:30.929Z,9.70
2023-04-20T06:19:57.887Z,9.80
2023-04-20T06:22:24.799Z,9.90
2023-04-20T06:24:51.696Z,10.00
2023-04-20T06:27:18.572Z,10.00
2023-04-20T06:29:45.537Z,10.00
2023-04-20T06:32:12.415Z,10.10
2023-04-20T06:34:39.314Z,10.10
2023-04-20T06:37:07.753Z,10.10
2023-04-20T06:39:35.755Z,10.00
2023-04-20T06:42:02.894Z,10.10
2023-04-20T06:44:29.784Z,10.20
2023-04-20T06:46:56.768Z,10.30
2023-04-20T06:49:23.758Z,10.30
2023-04-20T06:51:50.911Z,10.50
2023-04-20T06:54:17.888Z,10.20
2023-04-20T06:56:44.866Z,10.20
2023-04-20T06:59:11.843Z,10.20
2023-04-20T07:01:38.889Z,10.30
2023-04-20T07:04:05.871Z,10.30
2023-04-20T07:06:33.290Z,10.30
2023-04-20T07:09:00.218Z,10.30
2023-04-20T07:11:27.230Z,10.40
2023-04-20T07:13:54.185Z,10.40
2023-04-20T07:16:21.151Z,10.30
2023-04-20T07:18:48.071Z,10.30
2023-04-20T07:21:17.562Z,10.20
2023-04-20T07:23:45.128Z,10.30
2023-04-20T07:26:12.326Z,10.30
2023-04-20T07:28:39.270Z,10.50
2023-04-20T07:31:06.217Z,10.50
2023-04-20T07:33:35.971Z,10.50
2023-04-20T07:36:02.906Z,10.20
2023-04-20T07:38:29.852Z,10.40
2023-04-20T07:40:56.762Z,10.30
2023-04-20T07:43:23.720Z,10.40
2023-04-20T07:45:50.612Z,10.40
2023-04-20T07:48:17.537Z,10.40
2023-04-20T07:50:44.522Z,10.50
2023-04-20T07:53:11.449Z,10.60
2023-04-20T07:55:38.459Z,10.50
2023-04-20T07:58:05.493Z,10.30
2023-04-20T08:00:32.414Z,10.10
2023-04-20T08:02:59.549Z,10.00
2023-04-20T08:05:27.431Z,9.90
2023-04-20T08:07:54.425Z,10.00
2023-04-20T08:10:21.808Z,10.10
2023-04-20T08:12:51.824Z,10.20
2023-04-20T08:15:19.657Z,10.30
2023-04-20T08:17:46.600Z,10.30
2023-04-20T08:20:13.695Z,10.20
2023-04-20T08:22:40.700Z,10.50
2023-04-20T08:25:08.083Z,10.50
2023-04-20T08:27:35.016Z,10.50
2023-04-20T08:30:04.341Z,10.50
2023-04-20T08:32:31.373Z,10.50
2023-04-20T08:34:58.296Z,10.40
2023-04-20T08:37:26.101Z,10.20
2023-04-20T08:39:53.051Z,10.30
2023-04-20T08:42:20.104Z,10.50
2023-04-20T08:44:47.161Z,10.60
2023-04-20T08:47:15.164Z,10.80
2023-04-20T08:49:44.386Z,11.10
2023-04-20T08:52:12.256Z,11.20
2023-04-20T08:54:46.079Z,11.20
2023-04-20T08:57:20.333Z,11.10
2023-04-20T08:59:47.269Z,11.10
2023-04-20T09:02:14.634Z,11.10
2023-04-20T09:04:41.772Z,11.10
2023-04-20T09:07:19.422Z,11.30
2023-04-20T09:09:56.849Z,11.20
2023-04-20T09:12:24.887Z,11.00
2023-04-20T09:14:53.077Z,11.00
2023-04-20T09:17:35.248Z,11.30
2023-04-20T09:20:02.563Z,11.10
2023-04-20T09:22:34.316Z,11.30
2023-04-20T09:25:22.062Z,11.30
2023-04-20T09:28:01.492Z,11.50
2023-04-20T09:30:45.373Z,11.30
2023-04-20T09:33:14.479Z,11.10
2023-04-20T09:35:45.997Z,10.90
2023-04-20T09:38:16.869Z,11.10
2023-04-20T09:40:43.776Z,11.10
2023-04-20T09:43:24.436Z,10.90
2023-04-20T09:45:52.015Z,10.80
2023-04-20T09:48:20.974Z,10.90
2023-04-20T09:50:51.085Z,10.90
2023-04-20T09:53:20.015Z,10.90
2023-04-20T09:55:48.955Z,11.10
2023-04-20T09:58:19.525Z,11.30
2023-04-20T10:00:46.610Z,11.50
2023-04-20T10:03:17.988Z,11.50
2023-04-20T10:05:45.092Z,11.60
2023-04-20T10:08:12.024Z,11.60
2023-04-20T10:10:50.453Z,11.50
2023-04-20T10:13:22.056Z,11.50
2023-04-20T10:15:49.260Z,11.50
2023-04-20T10:18:23.683Z,11.60
2023-04-20T10:20:52.174Z,11.60
2023-04-20T10:23:20.085Z,11.50
2023-04-20T10:25:58.457Z,11.50
2023-04-20T10:28:39.779Z,11.50
2023-04-20T10:31:09.180Z,11.50
2023-04-20T10:33:36.104Z,11.70
2023-04-20T10:36:03.134Z,11.60
2023-04-20T10:38:35.878Z,11.50
2023-04-20T10:41:12.875Z,11.50
2023-04-20T10:43:43.354Z,11.80
2023-04-20T10:46:18.130Z,12.00
2023-04-20T10:48:51.123Z,11.70
2023-04-20T10:51:18.751Z,11.90
2023-04-20T10:53:45.873Z,11.70
2023-04-20T10:56:12.824Z,11.70
2023-04-20T10:58:41.250Z,11.60
2023-04-20T11:01:08.268Z,11.70
2023-04-20T11:03:35.759Z,12.00
2023-04-20T11:06:04.123Z,12.20
2023-04-20T11:08:42.014Z,12.30
2023-04-20T11:11:25.475Z,12.30
2023-04-20T11:13:52.438Z,12.40
2023-04-20T11:16:19.777Z,12.40
2023-04-20T11:18:52.107Z,12.30
2023-04-20T11:21:19.945Z,12.10
2023-04-20T11:23:47.151Z,12.20
2023-04-20T11:26:14.097Z,12.10
2023-04-20T11:28:56.153Z,12.10
2023-04-20T11:31:23.738Z,12.00
2023-04-20T11:33:51.041Z,12.00
2023-04-20T11:36:26.564Z,12.20
2023-04-20T11:38:53.530Z,12.40
2023-04-20T11:41:20.436Z,12.10
2023-04-20T11:43:49.134Z,11.90
2023-04-20T11:46:20.576Z,11.90
2023-04-20T11:48:49.122Z,11.90
2023-04-20T11:51:16.265Z,11.90
2023-04-20T11:53:43.233Z,11.90
2023-04-20T11:56:10.195Z,12.00
2023-04-20T11:58:37.178Z,12.00
2023-04-20T12:01:05.553Z,12.10
2023-04-20T12:03:32.984Z,12.00
2023-04-20T12:06:00.370Z,12.00
2023-04-20T12:08:27.243Z,11.90
2023-04-20T12:10:55.481Z,11.90
2023-04-20T12:13:23.585Z,11.70
2023-04-20T12:15:50.543Z,11.80
2023-04-20T12:18:17.557Z,11.80
2023-04-20T12:20:45.957Z,11.70
2023-04-20T12:23:13.366Z,11.80
2023-04-20T12:25:40.390Z,11.80
2023-04-20T12:28:08.013Z,12.00
2023-04-20T12:30:35.590Z,11.90
2023-04-20T12:33:04.066Z,12.10
2023-04-20T12:35:31.033Z,12.20
2023-04-20T12:37:58.072Z,12.40
2023-04-20T12:40:25.204Z,12.40
2023-04-20T12:42:52.182Z,12.50
2023-04-20T12:45:19.308Z,12.60
2023-04-20T12:47:46.288Z,12.80
2023-04-20T12:50:13.637Z,12.50
2023-04-20T12:52:40.724Z,12.50
2023-04-20T12:55:08.460Z,12.80
2023-04-20T12:57:35.773Z,12.80
2023-04-20T13:00:03.097Z,12.70
2023-04-20T13:02:30.201Z,12.70
2023-04-20T13:04:57.448Z,12.60
2023-04-20T13:07:25.155Z,12.90
2023-04-20T13:09:52.050Z,13.00
2023-04-20T13:12:19.166Z,13.00
2023-04-20T13:14:46.085Z,13.00
2023-04-20T13:17:13.208Z,13.00
2023-04-20T13:19:40.149Z,12.90
2023-04-20T13:22:07.091Z,13.10
2023-04-20T13:24:34.100Z,13.10
2023-04-20T13:27:01.360Z,13.40
2023-04-20T13:29:28.387Z,13.30
2023-04-20T13:31:55.382Z,13.30
2023-04-20T13:34:22.835Z,13.40
2023-04-20T13:36:49.824Z,13.40
2023-04-20T13:39:17.793Z,13.30
2023-04-20T13:41:44.901Z,13.30
2023-04-20T13:44:16.176Z,13.20
2023-04-20T13:46:44.858Z,13.40
2023-04-20T13:49:13.473Z,13.70
2023-04-20T13:51:40.941Z,13.80
2023-04-20T13:54:08.086Z,13.80
2023-04-20T13:56:35.558Z,13.70
2023-04-20T13:59:05.207Z,13.80
2023-04-20T14:01:32.196Z,13.90
2023-04-20T14:03:59.413Z,13.90
2023-04-20T14:06:27.732Z,13.90
2023-04-20T14:08:55.058Z,13.90
2023-04-20T14:11:22.052Z,14.00
2023-04-20T14:13:49.256Z,14.40
2023-04-20T14:16:16.235Z,14.50
2023-04-20T14:18:43.224Z,15.00
2023-04-20T14:21:10.229Z,15.70
2023-04-20T14:23:37.173Z,16.10
2023-04-20T14:26:04.300Z,16.00
2023-04-20T14:28:33.231Z,15.90
2023-04-20T14:31:02.133Z,15.90
2023-04-20T14:33:29.314Z,16.10
2023-04-20T14:35:56.333Z,16.30
2023-04-20T14:38:24.833Z,16.00
2023-04-20T14:40:52.598Z,16.50
2023-04-20T14:43:19.604Z,16.50
2023-04-20T14:45:46.935Z,16.70
2023-04-20T14:48:13.830Z,16.50
2023-04-20T14:50:40.736Z,16.70
2023-04-20T14:53:07.623Z,16.70
2023-04-20T14:55:34.622Z,16.70
2023-04-20T14:58:01.554Z,16.40
2023-04-20T15:00:28.643Z,16.40
2023-04-20T15:02:56.981Z,16.10
2023-04-20T15:05:28.046Z,15.60
2023-04-20T15:07:56.504Z,15.70
2023-04-20T15:10:23.740Z,15.60
2023-04-20T15:12:50.769Z,16.10
2023-04-20T15:15:18.038Z,16.00
2023-04-20T15:17:49.032Z,16.10
2023-04-20T15:20:16.075Z,16.50
2023-04-20T15:22:43.160Z,16.10
2023-04-20T15:25:10.288Z,16.30
2023-04-20T15:27:37.925Z,16.30
2023-04-20T15:30:06.188Z,16.20
2023-04-20T15:32:35.829Z,16.40
2023-04-20T15:35:02.812Z,16.40
2023-04-20T15:37:29.911Z,16.40
2023-04-20T15:39:56.834Z,16.30
2023-04-20T15:42:23.774Z,16.10
2023-04-20T15:44:50.680Z,15.90
2023-04-20T15:47:17.679Z,16.10
2023-04-20T15:49:44.704Z,16.10
2023-04-20T15:52:11.749Z,15.90
2023-04-20T15:54:38.826Z,16.00
2023-04-20T15:57:05.790Z,16.60
2023-04-20T15:59:32.975Z,17.10
2023-04-20T16:02:00.160Z,17.10
2023-04-20T16:04:27.206Z,17.70
2023-04-20T16:06:54.453Z,18.00
2023-04-20T16:09:23.599Z,17.60
2023-04-20T16:11:50.921Z,17.20
2023-04-20T16:14:18.349Z,16.80
2023-04-20T16:16:45.629Z,16.40
2023-04-20T16:19:14.669Z,16.00
2023-04-20T16:21:41.860Z,16.10
2023-04-20T16:24:08.866Z,15.70
2023-04-20T16:26:36.235Z,15.40
2023-04-20T16:29:03.675Z,15.20
2023-04-20T16:31:31.058Z,14.90
2023-04-20T16:33:58.971Z,14.70
2023-04-20T16:36:27.105Z,14.50
2023-04-20T16:38:54.021Z,14.00
2023-04-20T16:41:21.762Z,13.70
2023-04-20T16:43:48.751Z,13.30
2023-04-20T16:46:16.579Z,13.20
2023-04-20T16:48:44.245Z,12.90
2023-04-20T16:51:11.223Z,12.50
2023-04-20T16:53:38.182Z,12.20
2023-04-20T16:56:05.172Z,11.90
2023-04-20T16:58:32.271Z,11.60
2023-04-20T17:00:59.202Z,11.50
2023-04-20T17:03:26.754Z,11.40
2023-04-20T17:05:53.830Z,11.30
2023-04-20T17:08:21.586Z,11.20
2023-04-20T17:10:48.498Z,11.10
2023-04-20T17:13:15.569Z,11.00
2023-04-20T17:15:45.087Z,11.00
2023-04-20T17:18:12.625Z,10.90
2023-04-20T17:20:40.620Z,10.90
2023-04-20T17:23:07.496Z,10.80
2023-04-20T17:25:35.366Z,10.80
2023-04-20T17:28:02.817Z,10.60
2023-04-20T17:30:30.099Z,10.60
2023-04-20T17:32:57.465Z,10.60
2023-04-20T17:35:24.534Z,10.50
2023-04-20T17:37:52.110Z,10.40
2023-04-20T17:40:19.102Z,10.40
2023-04-20T17:42:46.073Z,10.40
2023-04-20T17:45:13.022Z,10.30
2023-04-20T17:47:39.913Z,10.30
2023-04-20T17:50:07.722Z,10.20
2023-04-20T17:52:35.282Z,10.10
2023-04-20T17:55:02.340Z,10.10
2023-04-20T17:57:29.583Z,10.00
2023-04-20T17:59:56.619Z,9.90
2023-04-20T18:02:24.787Z,9.80
2023-04-20T18:04:52.104Z,9.70
2023-04-20T18:07:19.483Z,9.70
2023-04-20T18:09:46.374Z,9.60
2023-04-20T18:16:00.129Z,9.60
2023-04-20T18:18:27.122Z,9.60
2023-04-20T18:20:54.147Z,9.50
2023-04-20T18:23:21.117Z,9.50
2023-04-20T18:25:48.060Z,9.60
2023-04-20T18:28:15.100Z,9.60
2023-04-20T18:30:42.336Z,9.60
2023-04-20T18:33:09.290Z,9.50
2023-04-20T18:35:36.301Z,9.50
2023-04-20T18:38:05.038Z,9.50
2023-04-20T18:40:32.011Z,9.60
2023-04-20T18:42:59.096Z,9.50
2023-04-20T18:45:26.487Z,9.60
2023-04-20T18:47:53.547Z,9.50
2023-04-20T18:50:20.689Z,9.50
2023-04-20T18:52:47.816Z,9.50
2023-04-20T18:55:14.729Z,9.40
2023-04-20T18:57:41.735Z,9.40
2023-04-20T19:00:09.921Z,9.40
2023-04-20T19:02:37.149Z,9.50
2023-04-20T19:05:04.396Z,9.50
2023-04-20T19:07:31.319Z,9.50
2023-04-20T19:09:58.291Z,9.50
2023-04-20T19:12:25.910Z,9.60
2023-04-20T19:14:52.795Z,9.60
2023-04-20T19:17:19.722Z,9.60
2023-04-20T19:19:48.242Z,9.70
2023-04-20T19:22:15.180Z,9.60
2023-04-20T19:24:42.216Z,9.50
2023-04-20T19:27:09.780Z,9.60
2023-04-20T19:29:37.320Z,9.70
2023-04-20T19:32:04.357Z,9.70
2023-04-20T19:34:31.339Z,9.70
2023-04-20T19:36:58.392Z,9.70
2023-04-20T19:39:25.398Z,9.80
2023-04-20T19:41:52.367Z,9.80
2023-04-20T19:44:19.616Z,9.80
2023-04-20T19:46:46.972Z,9.90
2023-04-20T19:49:13.951Z,9.90
2023-04-20T19:51:41.045Z,9.90
2023-04-20T19:54:08.036Z,9.90
2023-04-20T19:56:35.689Z,9.80
2023-04-20T19:59:02.673Z,9.70
2023-04-20T20:01:29.869Z,9.60
2023-04-20T20:03:57.102Z,9.50
2023-04-20T20:06:24.354Z,9.30
2023-04-20T20:08:51.618Z,9.20
2023-04-20T20:11:18.999Z,9.10
2023-04-20T20:13:45.999Z,9.00
2023-04-20T20:16:12.966Z,8.90
2023-04-20T20:18:39.901Z,9.00
2023-04-20T20:21:06.847Z,8.90
2023-04-20T20:23:33.895Z,8.80
2023-04-20T20:26:00.883Z,8.70
2023-04-20T20:28:27.771Z,8.50
2023-04-20T20:30:54.822Z,8.50
2023-04-20T20:33:21.963Z,8.60
2023-04-20T20:35:48.932Z,8.60
2023-04-20T20:38:16.131Z,8.50
2023-04-20T20:40:43.835Z,8.50
2023-04-20T20:46:58.901Z,8.60
2023-04-20T20:49:26.139Z,8.50
2023-04-20T20:51:53.125Z,8.60
2023-04-20T20:54:19.996Z,8.60
2023-04-20T20:56:46.991Z,8.60
2023-04-20T20:59:13.965Z,8.50
2023-04-20T21:01:41.058Z,8.30
2023-04-20T21:04:08.408Z,8.30
2023-04-20T21:06:35.676Z,8.30
2023-04-20T21:09:02.611Z,8.20
2023-04-20T21:11:29.534Z,8.20
2023-04-20T21:14:01.626Z,8.10
2023-04-20T21:16:29.311Z,8.10
2023-04-20T21:18:56.386Z,8.00
2023-04-20T21:21:23.382Z,8.00
2023-04-20T21:23:50.667Z,7.90
2023-04-20T21:26:17.704Z,7.90
2023-04-20T21:28:44.842Z,7.80
2023-04-20T21:31:11.735Z,7.70
2023-04-20T21:33:38.865Z,7.60
2023-04-20T21:36:06.290Z,7.70
2023-04-20T21:38:33.366Z,7.60
2023-04-20T21:41:00.392Z,7.50
2023-04-20T21:43:27.335Z,7.50
2023-04-20T21:45:54.290Z,7.40
2023-04-20T21:48:21.226Z,7.40
2023-04-20T21:50:48.086Z,7.30
2023-04-20T21:53:15.009Z,7.10
2023-04-20T21:55:42.035Z,7.40
2023-04-20T21:58:08.999Z,7.70
2023-04-20T22:00:36.055Z,7.90
2023-04-20T22:03:03.116Z,8.00
2023-04-20T22:05:30.115Z,7.90
2023-04-20T22:07:59.698Z,8.10
2023-04-20T22:10:26.825Z,8.10
2023-04-20T22:12:53.750Z,8.00
2023-04-20T22:15:22.438Z,7.90
2023-04-20T22:17:49.424Z,7.90
2023-04-20T22:20:17.561Z,7.80
2023-04-20T22:22:44.520Z,7.70
2023-04-20T22:25:11.716Z,7.50
2023-04-20T22:27:39.093Z,7.40
2023-04-20T22:30:08.724Z,7.40
2023-04-20T22:32:36.742Z,7.40
2023-04-20T22:35:04.832Z,7.40
2023-04-20T22:37:31.748Z,7.40
2023-04-20T22:39:59.150Z,7.40
2023-04-20T22:42:26.331Z,7.50
2023-04-20T22:44:53.381Z,7.50
2023-04-20T22:47:20.661Z,7.50
2023-04-20T22:49:49.115Z,7.40
2023-04-20T22:52:16.580Z,7.30
2023-04-20T22:54:48.181Z,7.20
2023-04-20T22:57:16.319Z,7.00
2023-04-20T22:59:43.278Z,6.90
2023-04-20T23:02:10.578Z,6.80
2023-04-20T23:04:37.848Z,6.60
2023-04-20T23:07:08.335Z,6.50
2023-04-20T23:09:39.916Z,6.50
2023-04-20T23:12:11.712Z,6.60
2023-04-20T23:14:42.739Z,6.50
2023-04-20T23:17:09.954Z,6.30
2023-04-20T23:19:38.710Z,6.30
2023-04-20T23:22:08.899Z,6.40
2023-04-20T23:24:36.366Z,6.50
2023-04-20T23:27:03.547Z,6.40
2023-04-20T23:29:30.470Z,6.40
2023-04-20T23:31:57.461Z,6.20
2023-04-20T23:34:25.162Z,6.00
2023-04-20T23:36:53.992Z,5.90
2023-04-20T23:39:21.609Z,5.80
2023-04-20T23:41:48.774Z,6.40
2023-04-20T23:44:15.754Z,6.70
2023-04-20T23:46:42.790Z,6.70
2023-04-20T23:49:09.758Z,6.70
2023-04-20T23:51:36.676Z,6.90
2023-04-20T23:54:03.771Z,7.00
2023-04-20T23:56:30.916Z,7.10
2023-04-20T23:58:59.331Z,7.20
